Map

Track Data

SID SEASON NUMBER BASIN SUBBASIN NAME ISO_TIME NATURE LAT LON WMO_WIND WMO_PRES WMO_AGENCY TRACK_TYPE DIST2LAND LANDFALL IFLAG USA_AGENCY USA_ATCF_ID USA_LAT USA_LON USA_RECORD USA_STATUS USA_WIND USA_PRES USA_SSHS USA_R34_NE USA_R34_SE USA_R34_SW USA_R34_NW USA_R50_NE USA_R50_SE USA_R50_SW USA_R50_NW USA_R64_NE USA_R64_SE USA_R64_SW USA_R64_NW USA_POCI USA_ROCI USA_RMW USA_EYE TOKYO_LAT TOKYO_LON TOKYO_GRADE TOKYO_WIND TOKYO_PRES TOKYO_R50_DIR TOKYO_R50_LONG TOKYO_R50_SHORT TOKYO_R30_DIR TOKYO_R30_LONG TOKYO_R30_SHORT TOKYO_LAND CMA_LAT CMA_LON CMA_CAT CMA_WIND CMA_PRES HKO_LAT HKO_LON HKO_CAT HKO_WIND HKO_PRES NEWDELHI_LAT NEWDELHI_LON NEWDELHI_GRADE NEWDELHI_WIND NEWDELHI_PRES NEWDELHI_CI NEWDELHI_DP NEWDELHI_POCI REUNION_LAT REUNION_LON REUNION_TYPE REUNION_WIND REUNION_PRES REUNION_TNUM REUNION_CI REUNION_RMW REUNION_R34_NE REUNION_R34_SE REUNION_R34_SW REUNION_R34_NW REUNION_R50_NE REUNION_R50_SE REUNION_R50_SW REUNION_R50_NW REUNION_R64_NE REUNION_R64_SE REUNION_R64_SW REUNION_R64_NW BOM_LAT BOM_LON BOM_TYPE BOM_WIND BOM_PRES BOM_TNUM BOM_CI BOM_RMW BOM_R34_NE BOM_R34_SE BOM_R34_SW BOM_R34_NW BOM_R50_NE BOM_R50_SE BOM_R50_SW BOM_R50_NW BOM_R64_NE BOM_R64_SE BOM_R64_SW BOM_R64_NW BOM_ROCI BOM_POCI BOM_EYE BOM_POS_METHOD BOM_PRES_METHOD NADI_LAT NADI_LON NADI_CAT NADI_WIND NADI_PRES WELLINGTON_LAT WELLINGTON_LON WELLINGTON_WIND WELLINGTON_PRES DS824_LAT DS824_LON DS824_STAGE DS824_WIND DS824_PRES TD9636_LAT TD9636_LON TD9636_STAGE TD9636_WIND TD9636_PRES TD9635_LAT TD9635_LON TD9635_WIND TD9635_PRES TD9635_ROCI NEUMANN_LAT NEUMANN_LON NEUMANN_CLASS NEUMANN_WIND NEUMANN_PRES MLC_LAT MLC_LON MLC_CLASS MLC_WIND MLC_PRES USA_GUST BOM_GUST BOM_GUST_PER REUNION_GUST REUNION_GUST_PER USA_SEAHGT USA_SEARAD_NE USA_SEARAD_SE USA_SEARAD_SW USA_SEARAD_NW STORM_SPEED STORM_DIR
1857313N17300 1857 17 NA NA NOT_NAMED 1857-11-08 12:00:00 TS 17.3000 -60.5000 main 549 519 _____________O -1 17.3000 -60.5000 TS 35 13 341
1857313N17300 1857 17 NA NA NOT_NAMED 1857-11-08 15:00:00 TS 17.9001 -60.7097 main 519 495 _____________P -1 17.9001 -60.7097 TS 37 13 342
1857313N17300 1857 17 NA NA NOT_NAMED 1857-11-08 18:00:00 TS 18.5000 -60.9000 main 495 486 _____________O -1 18.5000 -60.9000 TS 40 13 345
1857313N17300 1857 17 NA NA NOT_NAMED 1857-11-08 21:00:00 TS 19.1000 -61.0577 main 480 478 _____________P -1 19.1000 -61.0577 TS 42 12 347
1857313N17300 1857 17 NA NA NOT_NAMED 1857-11-09 00:00:00 TS 19.7000 -61.2000 main 484 481 _____________O -1 19.7000 -61.2000 TS 45 12 347
1857313N17300 1857 17 NA NA NOT_NAMED 1857-11-09 03:00:00 TS 20.3075 -61.3501 main 489 489 _____________P -1 20.3075 -61.3501 TS 50 12 347
1857313N17300 1857 17 NA NA NOT_NAMED 1857-11-09 06:00:00 TS 20.9000 -61.5000 main 512 512 _____________O -1 20.9000 -61.5000 TS 55 12 348
1857313N17300 1857 17 NA NA NOT_NAMED 1857-11-09 09:00:00 TS 21.4873 -61.6129 main 543 542 _____________P -1 21.4873 -61.6129 TS 55 11 346
1857313N17300 1857 17 NA NA NOT_NAMED 1857-11-09 12:00:00 TS 22.0000 -61.8000 main 565 565 _____________O -1 22.0000 -61.8000 TS 55 10 331
1857313N17300 1857 17 NA NA NOT_NAMED 1857-11-09 15:00:00 TS 22.3800 -62.1551 main 570 566 _____________P -1 22.3800 -62.1551 TS 57 10 313
1857313N17300 1857 17 NA NA NOT_NAMED 1857-11-09 18:00:00 TS 22.7000 -62.6000 main 573 571 _____________O -1 22.7000 -62.6000 TS 60 11 309
1857313N17300 1857 17 NA NA NOT_NAMED 1857-11-09 21:00:00 TS 23.0500 -63.0501 main 586 576 _____________P -1 23.0500 -63.0501 TS 60 11 310
1857313N17300 1857 17 NA NA NOT_NAMED 1857-11-10 00:00:00 TS 23.4000 -63.5000 main 600 600 _____________O -1 23.4000 -63.5000 TS 60 11 312
1857313N17300 1857 17 NA NA NOT_NAMED 1857-11-10 03:00:00 TS 23.7498 -63.9003 main 618 618 _____________P -1 23.7498 -63.9003 TS 67 10 314
1857313N17300 1857 17 NA NA NOT_NAMED 1857-11-10 06:00:00 TS 24.1000 -64.3000 main 651 651 _____________O -1 24.1000 -64.3000 HU 75 10 315
1857313N17300 1857 17 NA NA NOT_NAMED 1857-11-10 09:00:00 TS 24.4945 -64.7048 main 688 687 _____________P -1 24.4945 -64.7048 HU 77 11 311
1857313N17300 1857 17 NA NA NOT_NAMED 1857-11-10 12:00:00 TS 24.8000 -65.2000 main 716 715 _____________O -1 24.8000 -65.2000 HU 80 11 291
1857313N17300 1857 17 NA NA NOT_NAMED 1857-11-10 15:00:00 TS 24.8952 -65.8706 main 717 684 _____________P -1 24.8952 -65.8706 HU 80 13 275
1857313N17300 1857 17 NA NA NOT_NAMED 1857-11-10 18:00:00 TS 24.9000 -66.6000 main 684 658 _____________O -1 24.9000 -66.6000 HU 80 13 272
1857313N17300 1857 17 NA NA NOT_NAMED 1857-11-10 21:00:00 TS 24.9496 -67.2576 main 654 641 _____________P -1 24.9496 -67.2576 HU 80 12 275
1857313N17300 1857 17 NA NA NOT_NAMED 1857-11-11 00:00:00 TS 25.0000 -67.9000 main 641 620 _____________O -1 25.0000 -67.9000 HU 80 12 275
1857313N17300 1857 17 NA NA NOT_NAMED 1857-11-11 03:00:00 TS 25.0497 -68.5500 main 616 583 _____________P -1 25.0497 -68.5500 HU 80 12 275
1857313N17300 1857 17 NA NA NOT_NAMED 1857-11-11 06:00:00 TS 25.1000 -69.2000 main 583 544 _____________O -1 25.1000 -69.2000 HU 80 12 275
1857313N17300 1857 17 NA NA NOT_NAMED 1857-11-11 09:00:00 TS 25.1496 -69.8426 main 544 514 _____________P -1 25.1496 -69.8426 HU 80 12 275
1857313N17300 1857 17 NA NA NOT_NAMED 1857-11-11 12:00:00 TS 25.2000 -70.5000 main 514 483 _____________O -1 25.2000 -70.5000 HU 80 12 275
1857313N17300 1857 17 NA NA NOT_NAMED 1857-11-11 15:00:00 TS 25.2499 -71.2000 main 483 471 _____________P -1 25.2499 -71.2000 HU 80 13 275
1857313N17300 1857 17 NA NA NOT_NAMED 1857-11-11 18:00:00 TS 25.3000 -71.9000 main 471 461 _____________O -1 25.3000 -71.9000 HU 80 12 275
1857313N17300 1857 17 NA NA NOT_NAMED 1857-11-11 21:00:00 TS 25.3495 -72.5501 main 460 460 _____________P -1 25.3495 -72.5501 HU 77 12 275
1857313N17300 1857 17 NA NA NOT_NAMED 1857-11-12 00:00:00 TS 25.4000 -73.2000 main 464 398 _____________O -1 25.4000 -73.2000 HU 75 12 275
1857313N17300 1857 17 NA NA NOT_NAMED 1857-11-12 03:00:00 TS 25.4573 -73.8924 main 398 331 _____________P -1 25.4573 -73.8924 HU 72 13 275
1857313N17300 1857 17 NA NA NOT_NAMED 1857-11-12 06:00:00 TS 25.5000 -74.6000 main 331 266 _____________O -1 25.5000 -74.6000 HU 70 13 273
1857313N17300 1857 17 NA NA NOT_NAMED 1857-11-12 09:00:00 TS 25.5229 -75.3675 main 257 201 _____________P -1 25.5229 -75.3675 HU 67 13 270
1857313N17300 1857 17 NA NA NOT_NAMED 1857-11-12 12:00:00 TS 25.5000 -76.0000 main 201 170 _____________O -1 25.5000 -76.0000 HU 65 9 263
1857313N17300 1857 17 NA NA NOT_NAMED 1857-11-12 15:00:00 TS 25.4144 -76.3175 main 170 147 _____________P -1 25.4144 -76.3175 HU 62 5 246
1857313N17300 1857 17 NA NA NOT_NAMED 1857-11-12 18:00:00 TS 25.3000 -76.5000 main 147 124 _____________O -1 25.3000 -76.5000 TS 60 4 241
1857313N17300 1857 17 NA NA NOT_NAMED 1857-11-12 21:00:00 TS 25.2000 -76.7500 main 124 92 _____________P -1 25.2000 -76.7500 TS 57 5 246
1857313N17300 1857 17 NA NA NOT_NAMED 1857-11-13 00:00:00 TS 25.1000 -77.0000 main 92 69 _____________O -1 25.1000 -77.0000 TS 55 5 245
1857313N17300 1857 17 NA NA NOT_NAMED 1857-11-13 03:00:00 TS 24.9925 -77.2500 main 60 37 _____________P -1 24.9925 -77.2500 TS 52 5 246
1857313N17300 1857 17 NA NA NOT_NAMED 1857-11-13 06:00:00 TS 24.9000 -77.5000 main 37 20 _____________O -1 24.9000 -77.5000 TS 50 5 252
1857313N17300 1857 17 NA NA NOT_NAMED 1857-11-13 09:00:00 TS 24.8499 -77.7424 main 15 0 _____________P -1 24.8499 -77.7424 TS 47 5 258
1857313N17300 1857 17 NA NA NOT_NAMED 1857-11-13 12:00:00 TS 24.8000 -78.0000 main 0 0 _____________O -1 24.8000 -78.0000 TS 45 5 254
1857313N17300 1857 17 NA NA NOT_NAMED 1857-11-13 15:00:00 TS 24.7075 -78.3000 main 0 0 _____________P -1 24.7075 -78.3000 TS 42 6 250
1857313N17300 1857 17 NA NA NOT_NAMED 1857-11-13 18:00:00 TS 24.6000 -78.6000 main 10 10 _____________O -1 24.6000 -78.6000 TS 40 5 248
1857313N17300 1857 17 NA NA NOT_NAMED 1857-11-13 21:00:00 TS 24.4999 -78.8574 main 41 41 _____________P -1 24.4999 -78.8574 TS 37 5 246
1857313N17300 1857 17 NA NA NOT_NAMED 1857-11-14 00:00:00 TS 24.4000 -79.1000 main 64 64 _____________O -1 24.4000 -79.1000 TS 35 5 246
1857313N17300 1857 17 NA NA NOT_NAMED 1857-11-14 03:00:00 TS 24.2999 -79.3424 main 87 87 _____________P -1 24.2999 -79.3424 TS 35 5 246
1857313N17300 1857 17 NA NA NOT_NAMED 1857-11-14 06:00:00 TS 24.2000 -79.6000 main 119 119 _____________O -1 24.2000 -79.6000 TS 35 5 248
1857313N17300 1857 17 NA NA NOT_NAMED 1857-11-14 09:00:00 TS 24.0925 -79.9000 main 122 115 _____________P -1 24.0925 -79.9000 TS 32 6 250
1857313N17300 1857 17 NA NA NOT_NAMED 1857-11-14 12:00:00 ET 24.0000 -80.2000 main 115 100 _____________O -1 24.0000 -80.2000 EX 30 5 254
1857313N17300 1857 17 NA NA NOT_NAMED 1857-11-14 15:00:00 ET 23.9425 -80.4649 main 100 100 _____________P -1 23.9425 -80.4649 EX 30 5 258
1857313N17300 1857 17 NA NA NOT_NAMED 1857-11-14 18:00:00 ET 23.9000 -80.7000 main 100 98 _____________O -1 23.9000 -80.7000 EX 30 4 257
1857313N17300 1857 17 NA NA NOT_NAMED 1857-11-14 21:00:00 ET 23.8499 -80.9000 main 88 80 _____________P -1 23.8499 -80.9000 EX 30 4 255
1857313N17300 1857 17 NA NA NOT_NAMED 1857-11-15 00:00:00 ET 23.8000 -81.1000 main 80 67 _____________O -1 23.8000 -81.1000 EX 30 4 255
1857313N17300 1857 17 NA NA NOT_NAMED 1857-11-15 03:00:00 ET 23.7425 -81.3500 main 67 67 _____________P -1 23.7425 -81.3500 EX 30 5 258
1857313N17300 1857 17 NA NA NOT_NAMED 1857-11-15 06:00:00 ET 23.7000 -81.6000 main 67 67 _____________O -1 23.7000 -81.6000 EX 30 4 263
1857313N17300 1857 17 NA NA NOT_NAMED 1857-11-15 09:00:00 ET 23.6900 -81.8125 main 67 67 _____________P -1 23.6900 -81.8125 EX 30 4 270
1857313N17300 1857 17 NA NA NOT_NAMED 1857-11-15 12:00:00 ET 23.7000 -82.0000 main 67 _____________O -1 23.7000 -82.0000 EX 30 3 273

About IBTrACS Database

This database is a web-friendly format of International Best Track Archive for Climate Stewardship (IBTrACS), a global best track data archive curated by NOAA dating back to 1842.

Updated: 2021-10-08